Ann Elise — WDG5175 — position and weather

sailwx.info

Track history (hours):
 
Tides and Currents Weather Stations Pressure Air Temp Water Temp Dewpoint Dewpoint Depression Visibility Wind Speed Wind Dir Waves Ship Positions

Ann Elise

Owner: Magnolia Marine Transport Company, Vicksburg, MS. More information available from US FCC via Universal Licensing System and Coast Guard Vessel Documentation Center.

Last reported at 2018-May-26 13:45 UTC. Time now 2018-May-26 23:13 UTC.
Position N 32°01' W 091°04'.

Length 217 m; draft 3 m.

Type: Towing. MMSI: 367544060.

Date/timePositionNaut miles runAvg speedWind from/ knotsBaromVisibWave heightAir tempDewpointWater temp
2018-May-26 13:45N 32°01' W 091°04'3 8.7
2018-May-26 13:26N 32°04' W 091°04'4 8.9
2018-May-26 13:00N 32°07' W 091°06'5 7.7
2018-May-26 12:20N 32°08' W 091°01'3 9.3
2018-May-26 12:00N 32°11' W 090°60'5 9.4
2018-May-26 11:30N 32°15' W 090°58'5 9.4
2018-May-26 11:00N 32°19' W 090°54'3 6.6
2018-May-26 10:30N 32°22' W 090°53'1 1.7
2018-May-26 10:00N 32°23' W 090°52'0 0.6
2018-May-26 09:30N 32°23' W 090°53'0 0.0
2018-May-26 09:00N 32°23' W 090°53'0 0.0
2018-May-26 08:30N 32°23' W 090°53'0 0.0
2018-May-26 08:00N 32°23' W 090°53'0 0.0
2018-May-26 07:30N 32°23' W 090°53'0 0.0
2018-May-26 07:00N 32°23' W 090°53'0 0.0
2018-May-26 06:30N 32°23' W 090°53'0 0.0
2018-May-26 05:30N 32°23' W 090°53'0 0.0
2018-May-26 05:00N 32°23' W 090°53'0 0.0
2018-May-26 04:30N 32°23' W 090°53'0 0.0
2018-May-26 04:00N 32°23' W 090°53'0 0.0
2018-May-26 03:30N 32°23' W 090°53'0 0.0
2018-May-26 03:00N 32°23' W 090°53'0 0.0
2018-May-26 02:30N 32°23' W 090°53'0 0.0
2018-May-26 02:00N 32°23' W 090°53'0 0.0
2018-May-26 01:28N 32°23' W 090°53'0 0.0
2018-May-26 01:00N 32°23' W 090°53'0 0.0
2018-May-26 00:30N 32°23' W 090°53'0 0.3
2018-May-26 00:00N 32°23' W 090°53'0 0.0
2018-May-25 23:30N 32°23' W 090°53'0 0.0
2018-May-25 23:00N 32°23' W 090°53'0 0.2
2018-May-25 22:30N 32°23' W 090°53'0 0.1
2018-May-25 22:00N 32°23' W 090°53'1 2.3
2018-May-25 21:30N 32°23' W 090°54'0 0.0
2018-May-25 21:00N 32°23' W 090°54'0 0.2
2018-May-25 20:25N 32°23' W 090°54'0 0.5
2018-May-25 20:00N 32°23' W 090°54'1 1.9
2018-May-25 19:30N 32°23' W 090°53'0 0.0
2018-May-25 19:00N 32°23' W 090°53'0 0.6
2018-May-25 18:30N 32°23' W 090°53'1 1.3
2018-May-25 18:00N 32°23' W 090°54'0 0.0
2018-May-25 17:30N 32°23' W 090°54'1 1.8
2018-May-25 17:00N 32°23' W 090°53'1 2.0
2018-May-25 16:30N 32°23' W 090°54'0 0.0
2018-May-25 16:00N 32°23' W 090°54'0 0.0
2018-May-25 15:30N 32°23' W 090°54'0 0.0
2018-May-25 15:00N 32°23' W 090°54'0 0.0
2018-May-25 14:30N 32°23' W 090°54'0 0.0
2018-May-25 14:00N 32°23' W 090°54'0 0.0
2018-May-25 13:30N 32°23' W 090°54'0 0.0
2018-May-25 13:00N 32°23' W 090°54'1 1.2
2018-May-25 12:31N 32°23' W 090°53'0 0.8
2018-May-25 12:00N 32°23' W 090°53'1 1.9
2018-May-25 11:30N 32°23' W 090°54'0 0.0
2018-May-25 11:00N 32°23' W 090°54'0 0.0
2018-May-25 10:30N 32°23' W 090°54'0 0.0
2018-May-25 10:00N 32°23' W 090°54'0 0.0
2018-May-25 09:30N 32°23' W 090°54'0 0.0
2018-May-25 09:00N 32°23' W 090°54'0 0.0
2018-May-25 08:30N 32°23' W 090°54'0 0.0
2018-May-25 08:00N 32°23' W 090°54'0 0.0
2018-May-25 07:30N 32°23' W 090°54'0 0.0
2018-May-25 07:00N 32°23' W 090°54'0 0.0
2018-May-25 06:30N 32°23' W 090°54'0 0.4
2018-May-25 06:00N 32°23' W 090°54'0 0.1
2018-May-25 05:30N 32°23' W 090°54'0 0.2
2018-May-25 05:00N 32°23' W 090°54'0 0.3
2018-May-25 04:30N 32°23' W 090°54'0 0.1
2018-May-25 04:00N 32°23' W 090°54'0 0.0
2018-May-25 03:30N 32°23' W 090°54'0 0.0
2018-May-25 03:00N 32°23' W 090°54'0 0.0
2018-May-25 02:30N 32°23' W 090°54'0 0.0
2018-May-25 02:00N 32°23' W 090°54'0 0.0
2018-May-25 01:30N 32°23' W 090°54'0 0.0
2018-May-25 01:00N 32°23' W 090°54'0 0.1
2018-May-25 00:27N 32°23' W 090°54'0 0.0
2018-May-25 00:00N 32°23' W 090°54'0 0.0
2018-May-24 23:30N 32°23' W 090°54'0 0.0
2018-May-24 23:00N 32°23' W 090°54'0 0.0
2018-May-24 22:30N 32°23' W 090°54'0 0.0
2018-May-24 22:00N 32°23' W 090°54'1 2.2
2018-May-24 21:30N 32°23' W 090°53'0 0.3
2018-May-24 21:00N 32°23' W 090°53'1 1.4
2018-May-24 20:30N 32°23' W 090°53'0 0.5
2018-May-24 20:00N 32°22' W 090°53'2 3.7
2018-May-24 19:30N 32°21' W 090°54'2 4.2
2018-May-24 19:00N 32°19' W 090°55'1 2.9
2018-May-24 18:30N 32°18' W 090°56'2 4.1
2018-May-24 18:00N 32°16' W 090°58'3 6.8
2018-May-24 17:30N 32°13' W 090°59'3 6.3
2018-May-24 17:00N 32°10' W 090°60'3 6.0
2018-May-24 16:30N 32°07' W 091°01'4 6.7
2018-May-24 15:58N 32°08' W 091°05'5 5.6
2018-May-24 15:02N 32°03' W 091°04'142 3.3
2018-May-22 20:30N 29°50' W 092°00'3 6.4
2018-May-22 20:00N 29°49' W 092°03'3 6.9
2018-May-22 19:30N 29°47' W 092°07'0 0.4
2018-May-22 19:00N 29°47' W 092°07'0 0.0
2018-May-22 18:30N 29°47' W 092°07'0 0.0
2018-May-22 18:00N 29°47' W 092°07'2 4.5
2018-May-22 17:30N 29°47' W 092°10'50 4.0
2018-May-22 04:56N 29°56' W 093°06'3 6.0
2018-May-22 04:30N 29°56' W 093°09'3 5.6
2018-May-22 04:00N 29°58' W 093°11'3 5.5
2018-May-22 03:30N 30°00' W 093°14'2 4.9
2018-May-22 03:00N 30°02' W 093°15'2 4.3
2018-May-22 02:30N 30°04' W 093°16'2 3.5
2018-May-22 02:00N 30°05' W 093°18'1 1.7
2018-May-22 01:30N 30°06' W 093°18'0 0.3
2018-May-22 01:00N 30°06' W 093°18'0 0.1
2018-May-22 00:30N 30°06' W 093°18'0 0.1
2018-May-22 00:00N 30°06' W 093°18'0 0.1
2018-May-21 23:30N 30°06' W 093°18'0 0.0
2018-May-21 23:00N 30°06' W 093°18'0 0.0
2018-May-21 22:30N 30°06' W 093°18'0 0.0
2018-May-21 22:00N 30°06' W 093°18'0 0.0
2018-May-21 21:30N 30°06' W 093°18'0 0.0
2018-May-21 20:59N 30°06' W 093°18'0 0.0
2018-May-21 20:30N 30°06' W 093°18'0 0.0
2018-May-21 20:00N 30°06' W 093°18'0 0.0
2018-May-21 19:30N 30°06' W 093°18'0 0.0
2018-May-21 19:00N 30°06' W 093°18'0 0.0
2018-May-21 18:25N 30°06' W 093°18'0 0.0
2018-May-21 17:54N 30°06' W 093°18'0 0.0
2018-May-21 17:30N 30°06' W 093°18'0 0.0
2018-May-21 17:00N 30°06' W 093°18'0 0.0
2018-May-21 16:30N 30°06' W 093°18'0 0.0
2018-May-21 15:59N 30°06' W 093°18'0 0.0
2018-May-21 15:07N 30°06' W 093°18'0 0.1
2018-May-21 15:00N 30°06' W 093°18'0 0.0
2018-May-21 14:30N 30°06' W 093°18'0 0.9
2018-May-21 14:00N 30°06' W 093°19'3 5.5
2018-May-21 13:30N 30°04' W 093°21'2 5.0
2018-May-21 13:00N 30°04' W 093°24'3 6.2
2018-May-21 12:30N 30°04' W 093°27'3 6.2
2018-May-21 12:00N 30°04' W 093°31'3 6.1
2018-May-21 11:30N 30°04' W 093°34'4 5.9
2018-May-21 10:54N 30°04' W 093°38'2 5.7
2018-May-21 10:30N 30°04' W 093°41'3 5.6
2018-May-21 10:00N 30°03' W 093°44'2 4.2
2018-May-21 09:30N 30°01' W 093°45'3 5.8
2018-May-21 09:00N 29°59' W 093°48'4 7.5
2018-May-21 08:30N 29°57' W 093°52'4 7.2
2018-May-21 08:00N 29°54' W 093°54'3 5.5
2018-May-21 07:30N 29°52' W 093°56'3 6.8
2018-May-21 07:00N 29°49' W 093°58'3 5.3
2018-May-21 06:30N 29°47' W 094°01'3 6.1
2018-May-21 06:01N 29°46' W 094°03'3 5.7
2018-May-21 05:30N 29°44' W 094°06'3 6.9
2018-May-21 05:00N 29°42' W 094°09'3 5.9
2018-May-21 04:30N 29°41' W 094°12'3 6.0
2018-May-21 04:00N 29°39' W 094°15'3 6.0
2018-May-21 03:30N 29°38' W 094°19'30 2.7
2018-May-20 16:19N 29°22' W 094°47'0 0.7
2018-May-20 15:56N 29°22' W 094°48'11 6.9
2018-May-20 14:16N 29°32' W 094°54'3 9.8
2018-May-20 14:00N 29°34' W 094°56'6 9.7
2018-May-20 13:25N 29°40' W 094°58'3 8.2
2018-May-20 13:00N 29°42' W 095°01'5 0.1
2018-May-18 10:35N 29°45' W 095°06'0 0.0
2018-May-18 10:30N 29°45' W 095°06'0 0.0
2018-May-18 10:00N 29°45' W 095°06'0 0.5
2018-May-18 09:30N 29°45' W 095°06'2 3.6
2018-May-18 08:59N 29°47' W 095°05'1 3.1
2018-May-18 08:30N 29°48' W 095°04'0 0.5
2018-May-18 08:00N 29°48' W 095°04'0 0.2
2018-May-18 07:30N 29°48' W 095°04'0 0.0
2018-May-18 07:00N 29°48' W 095°04'0 0.0
2018-May-18 06:30N 29°48' W 095°04'0 0.0
2018-May-18 06:00N 29°48' W 095°04'0 0.0
2018-May-18 05:30N 29°48' W 095°04'0 0.0
2018-May-18 04:58N 29°48' W 095°04'0 0.0
2018-May-18 04:30N 29°48' W 095°04'0 0.0
2018-May-18 03:59N 29°48' W 095°04'0 0.0
2018-May-18 03:18N 29°48' W 095°04'0 0.0
2018-May-18 02:58N 29°48' W 095°04'1 0.0
2018-May-17 09:27N 29°47' W 095°04'0 0.0
2018-May-17 09:01N 29°47' W 095°04'0 0.0
2018-May-17 08:27N 29°47' W 095°04'5 4.2
2018-May-17 07:16N 29°43' W 095°01'2 7.9
2018-May-17 07:00N 29°42' W 094°59'5 9.3
2018-May-17 06:30N 29°37' W 094°57'5 9.4
2018-May-17 06:00N 29°33' W 094°55'5 7.4
2018-May-17 05:20N 29°29' W 094°52'2 6.2
2018-May-17 05:00N 29°27' W 094°51'3 6.1
2018-May-17 04:30N 29°24' W 094°49'3 5.4
2018-May-17 04:00N 29°22' W 094°47'2 3.2
2018-May-17 03:30N 29°24' W 094°46'1 2.2
2018-May-17 03:00N 29°24' W 094°45'3 5.6
2018-May-17 02:30N 29°26' W 094°42'2 4.3
2018-May-17 02:00N 29°27' W 094°40'3 5.8
2018-May-17 01:30N 29°29' W 094°37'3 5.8
2018-May-17 01:00N 29°30' W 094°34'3 5.6
2018-May-17 00:30N 29°31' W 094°31'3 5.2
2018-May-17 00:00N 29°32' W 094°29'3 5.2
2018-May-16 23:30N 29°34' W 094°26'2 4.3
2018-May-16 23:00N 29°36' W 094°25'5 4.9
2018-May-16 21:55N 29°38' W 094°19'2 5.0
2018-May-16 21:28N 29°39' W 094°17'3 5.1
2018-May-16 20:52N 29°40' W 094°14'2 5.1
2018-May-16 20:29N 29°41' W 094°12'2 4.0
2018-May-16 20:00N 29°41' W 094°10'2 4.8
2018-May-16 19:30N 29°43' W 094°08'3 5.1
2018-May-16 19:00N 29°44' W 094°05'2 4.8
2018-May-16 18:31N 29°46' W 094°03'2 4.6
2018-May-16 18:00N 29°47' W 094°01'1 3.0
2018-May-16 17:30N 29°48' W 093°60'2 3.2
2018-May-16 17:00N 29°49' W 093°58'2 4.9
2018-May-16 16:30N 29°51' W 093°57'3 5.7
2018-May-16 16:00N 29°54' W 093°55'3 5.7
2018-May-16 15:30N 29°56' W 093°53'3 5.6
2018-May-16 15:00N 29°58' W 093°51'2 4.1
2018-May-16 14:30N 29°59' W 093°49'3 5.8
2018-May-16 14:00N 30°00' W 093°46'  
Track history (hours):
 
Tides and Currents Weather Stations Pressure Air Temp Water Temp Dewpoint Dewpoint Depression Visibility Wind Speed Wind Dir Waves Ship Positions

Ann Elise

Owner: Magnolia Marine Transport Company, Vicksburg, MS. More information available from US FCC via Universal Licensing System and Coast Guard Vessel Documentation Center.

Last reported at 2018-May-26 13:45 UTC. Time now 2018-May-26 23:13 UTC.
Position N 32°01' W 091°04'.

Length 217 m; draft 3 m.

Type: Towing. MMSI: 367544060.

Date/timePositionNaut miles runAvg speedWind from/ knotsBaromVisibWave heightAir tempDewpointWater temp
2018-May-26 13:45N 32°01' W 091°04'3 8.7
2018-May-26 13:26N 32°04' W 091°04'4 8.9
2018-May-26 13:00N 32°07' W 091°06'5 7.7
2018-May-26 12:20N 32°08' W 091°01'3 9.3
2018-May-26 12:00N 32°11' W 090°60'5 9.4
2018-May-26 11:30N 32°15' W 090°58'5 9.4
2018-May-26 11:00N 32°19' W 090°54'3 6.6
2018-May-26 10:30N 32°22' W 090°53'1 1.7
2018-May-26 10:00N 32°23' W 090°52'0 0.6
2018-May-26 09:30N 32°23' W 090°53'0 0.0
2018-May-26 09:00N 32°23' W 090°53'0 0.0
2018-May-26 08:30N 32°23' W 090°53'0 0.0
2018-May-26 08:00N 32°23' W 090°53'0 0.0
2018-May-26 07:30N 32°23' W 090°53'0 0.0
2018-May-26 07:00N 32°23' W 090°53'0 0.0
2018-May-26 06:30N 32°23' W 090°53'0 0.0
2018-May-26 05:30N 32°23' W 090°53'0 0.0
2018-May-26 05:00N 32°23' W 090°53'0 0.0
2018-May-26 04:30N 32°23' W 090°53'0 0.0
2018-May-26 04:00N 32°23' W 090°53'0 0.0
2018-May-26 03:30N 32°23' W 090°53'0 0.0
2018-May-26 03:00N 32°23' W 090°53'0 0.0
2018-May-26 02:30N 32°23' W 090°53'0 0.0
2018-May-26 02:00N 32°23' W 090°53'0 0.0
2018-May-26 01:28N 32°23' W 090°53'0 0.0
2018-May-26 01:00N 32°23' W 090°53'0 0.0
2018-May-26 00:30N 32°23' W 090°53'0 0.3
2018-May-26 00:00N 32°23' W 090°53'0 0.0
2018-May-25 23:30N 32°23' W 090°53'0 0.0
2018-May-25 23:00N 32°23' W 090°53'0 0.2
2018-May-25 22:30N 32°23' W 090°53'0 0.1
2018-May-25 22:00N 32°23' W 090°53'1 2.3
2018-May-25 21:30N 32°23' W 090°54'0 0.0
2018-May-25 21:00N 32°23' W 090°54'0 0.2
2018-May-25 20:25N 32°23' W 090°54'0 0.5
2018-May-25 20:00N 32°23' W 090°54'1 1.9
2018-May-25 19:30N 32°23' W 090°53'0 0.0
2018-May-25 19:00N 32°23' W 090°53'0 0.6
2018-May-25 18:30N 32°23' W 090°53'1 1.3
2018-May-25 18:00N 32°23' W 090°54'0 0.0
2018-May-25 17:30N 32°23' W 090°54'1 1.8
2018-May-25 17:00N 32°23' W 090°53'1 2.0
2018-May-25 16:30N 32°23' W 090°54'0 0.0
2018-May-25 16:00N 32°23' W 090°54'0 0.0
2018-May-25 15:30N 32°23' W 090°54'0 0.0
2018-May-25 15:00N 32°23' W 090°54'0 0.0
2018-May-25 14:30N 32°23' W 090°54'0 0.0
2018-May-25 14:00N 32°23' W 090°54'0 0.0
2018-May-25 13:30N 32°23' W 090°54'0 0.0
2018-May-25 13:00N 32°23' W 090°54'1 1.2
2018-May-25 12:31N 32°23' W 090°53'0 0.8
2018-May-25 12:00N 32°23' W 090°53'1 1.9
2018-May-25 11:30N 32°23' W 090°54'0 0.0
2018-May-25 11:00N 32°23' W 090°54'0 0.0
2018-May-25 10:30N 32°23' W 090°54'0 0.0
2018-May-25 10:00N 32°23' W 090°54'0 0.0
2018-May-25 09:30N 32°23' W 090°54'0 0.0
2018-May-25 09:00N 32°23' W 090°54'0 0.0
2018-May-25 08:30N 32°23' W 090°54'0 0.0
2018-May-25 08:00N 32°23' W 090°54'0 0.0
2018-May-25 07:30N 32°23' W 090°54'0 0.0
2018-May-25 07:00N 32°23' W 090°54'0 0.0
2018-May-25 06:30N 32°23' W 090°54'0 0.4
2018-May-25 06:00N 32°23' W 090°54'0 0.1
2018-May-25 05:30N 32°23' W 090°54'0 0.2
2018-May-25 05:00N 32°23' W 090°54'0 0.3
2018-May-25 04:30N 32°23' W 090°54'0 0.1
2018-May-25 04:00N 32°23' W 090°54'0 0.0
2018-May-25 03:30N 32°23' W 090°54'0 0.0
2018-May-25 03:00N 32°23' W 090°54'0 0.0
2018-May-25 02:30N 32°23' W 090°54'0 0.0
2018-May-25 02:00N 32°23' W 090°54'0 0.0
2018-May-25 01:30N 32°23' W 090°54'0 0.0
2018-May-25 01:00N 32°23' W 090°54'0 0.1
2018-May-25 00:27N 32°23' W 090°54'0 0.0
2018-May-25 00:00N 32°23' W 090°54'0 0.0
2018-May-24 23:30N 32°23' W 090°54'0 0.0
2018-May-24 23:00N 32°23' W 090°54'0 0.0
2018-May-24 22:30N 32°23' W 090°54'0 0.0
2018-May-24 22:00N 32°23' W 090°54'1 2.2
2018-May-24 21:30N 32°23' W 090°53'0 0.3
2018-May-24 21:00N 32°23' W 090°53'1 1.4
2018-May-24 20:30N 32°23' W 090°53'0 0.5
2018-May-24 20:00N 32°22' W 090°53'2 3.7
2018-May-24 19:30N 32°21' W 090°54'2 4.2
2018-May-24 19:00N 32°19' W 090°55'1 2.9
2018-May-24 18:30N 32°18' W 090°56'2 4.1
2018-May-24 18:00N 32°16' W 090°58'3 6.8
2018-May-24 17:30N 32°13' W 090°59'3 6.3
2018-May-24 17:00N 32°10' W 090°60'3 6.0
2018-May-24 16:30N 32°07' W 091°01'4 6.7
2018-May-24 15:58N 32°08' W 091°05'5 5.6
2018-May-24 15:02N 32°03' W 091°04'142 3.3
2018-May-22 20:30N 29°50' W 092°00'3 6.4
2018-May-22 20:00N 29°49' W 092°03'3 6.9
2018-May-22 19:30N 29°47' W 092°07'0 0.4
2018-May-22 19:00N 29°47' W 092°07'0 0.0
2018-May-22 18:30N 29°47' W 092°07'0 0.0
2018-May-22 18:00N 29°47' W 092°07'2 4.5
2018-May-22 17:30N 29°47' W 092°10'50 4.0
2018-May-22 04:56N 29°56' W 093°06'3 6.0
2018-May-22 04:30N 29°56' W 093°09'3 5.6
2018-May-22 04:00N 29°58' W 093°11'3 5.5
2018-May-22 03:30N 30°00' W 093°14'2 4.9
2018-May-22 03:00N 30°02' W 093°15'2 4.3
2018-May-22 02:30N 30°04' W 093°16'2 3.5
2018-May-22 02:00N 30°05' W 093°18'1 1.7
2018-May-22 01:30N 30°06' W 093°18'0 0.3
2018-May-22 01:00N 30°06' W 093°18'0 0.1
2018-May-22 00:30N 30°06' W 093°18'0 0.1
2018-May-22 00:00N 30°06' W 093°18'0 0.1
2018-May-21 23:30N 30°06' W 093°18'0 0.0
2018-May-21 23:00N 30°06' W 093°18'0 0.0
2018-May-21 22:30N 30°06' W 093°18'0 0.0
2018-May-21 22:00N 30°06' W 093°18'0 0.0
2018-May-21 21:30N 30°06' W 093°18'0 0.0
2018-May-21 20:59N 30°06' W 093°18'0 0.0
2018-May-21 20:30N 30°06' W 093°18'0 0.0
2018-May-21 20:00N 30°06' W 093°18'0 0.0
2018-May-21 19:30N 30°06' W 093°18'0 0.0
2018-May-21 19:00N 30°06' W 093°18'0 0.0
2018-May-21 18:25N 30°06' W 093°18'0 0.0
2018-May-21 17:54N 30°06' W 093°18'0 0.0
2018-May-21 17:30N 30°06' W 093°18'0 0.0
2018-May-21 17:00N 30°06' W 093°18'0 0.0
2018-May-21 16:30N 30°06' W 093°18'0 0.0
2018-May-21 15:59N 30°06' W 093°18'0 0.0
2018-May-21 15:07N 30°06' W 093°18'0 0.1
2018-May-21 15:00N 30°06' W 093°18'0 0.0
2018-May-21 14:30N 30°06' W 093°18'0 0.9
2018-May-21 14:00N 30°06' W 093°19'3 5.5
2018-May-21 13:30N 30°04' W 093°21'2 5.0
2018-May-21 13:00N 30°04' W 093°24'3 6.2
2018-May-21 12:30N 30°04' W 093°27'3 6.2
2018-May-21 12:00N 30°04' W 093°31'3 6.1
2018-May-21 11:30N 30°04' W 093°34'4 5.9
2018-May-21 10:54N 30°04' W 093°38'2 5.7
2018-May-21 10:30N 30°04' W 093°41'3 5.6
2018-May-21 10:00N 30°03' W 093°44'2 4.2
2018-May-21 09:30N 30°01' W 093°45'3 5.8
2018-May-21 09:00N 29°59' W 093°48'4 7.5
2018-May-21 08:30N 29°57' W 093°52'4 7.2
2018-May-21 08:00N 29°54' W 093°54'3 5.5
2018-May-21 07:30N 29°52' W 093°56'3 6.8
2018-May-21 07:00N 29°49' W 093°58'3 5.3
2018-May-21 06:30N 29°47' W 094°01'3 6.1
2018-May-21 06:01N 29°46' W 094°03'3 5.7
2018-May-21 05:30N 29°44' W 094°06'3 6.9
2018-May-21 05:00N 29°42' W 094°09'3 5.9
2018-May-21 04:30N 29°41' W 094°12'3 6.0
2018-May-21 04:00N 29°39' W 094°15'3 6.0
2018-May-21 03:30N 29°38' W 094°19'30 2.7
2018-May-20 16:19N 29°22' W 094°47'0 0.7
2018-May-20 15:56N 29°22' W 094°48'11 6.9
2018-May-20 14:16N 29°32' W 094°54'3 9.8
2018-May-20 14:00N 29°34' W 094°56'6 9.7
2018-May-20 13:25N 29°40' W 094°58'3 8.2
2018-May-20 13:00N 29°42' W 095°01'5 0.1
2018-May-18 10:35N 29°45' W 095°06'0 0.0
2018-May-18 10:30N 29°45' W 095°06'0 0.0
2018-May-18 10:00N 29°45' W 095°06'0 0.5
2018-May-18 09:30N 29°45' W 095°06'2 3.6
2018-May-18 08:59N 29°47' W 095°05'1 3.1
2018-May-18 08:30N 29°48' W 095°04'0 0.5
2018-May-18 08:00N 29°48' W 095°04'0 0.2
2018-May-18 07:30N 29°48' W 095°04'0 0.0
2018-May-18 07:00N 29°48' W 095°04'0 0.0
2018-May-18 06:30N 29°48' W 095°04'0 0.0
2018-May-18 06:00N 29°48' W 095°04'0 0.0
2018-May-18 05:30N 29°48' W 095°04'0 0.0
2018-May-18 04:58N 29°48' W 095°04'0 0.0
2018-May-18 04:30N 29°48' W 095°04'0 0.0
2018-May-18 03:59N 29°48' W 095°04'0 0.0
2018-May-18 03:18N 29°48' W 095°04'0 0.0
2018-May-18 02:58N 29°48' W 095°04'1 0.0
2018-May-17 09:27N 29°47' W 095°04'0 0.0
2018-May-17 09:01N 29°47' W 095°04'0 0.0
2018-May-17 08:27N 29°47' W 095°04'5 4.2
2018-May-17 07:16N 29°43' W 095°01'2 7.9
2018-May-17 07:00N 29°42' W 094°59'5 9.3
2018-May-17 06:30N 29°37' W 094°57'5 9.4
2018-May-17 06:00N 29°33' W 094°55'5 7.4
2018-May-17 05:20N 29°29' W 094°52'2 6.2
2018-May-17 05:00N 29°27' W 094°51'3 6.1
2018-May-17 04:30N 29°24' W 094°49'3 5.4
2018-May-17 04:00N 29°22' W 094°47'2 3.2
2018-May-17 03:30N 29°24' W 094°46'1 2.2
2018-May-17 03:00N 29°24' W 094°45'3 5.6
2018-May-17 02:30N 29°26' W 094°42'2 4.3
2018-May-17 02:00N 29°27' W 094°40'3 5.8
2018-May-17 01:30N 29°29' W 094°37'3 5.8
2018-May-17 01:00N 29°30' W 094°34'3 5.6
2018-May-17 00:30N 29°31' W 094°31'3 5.2
2018-May-17 00:00N 29°32' W 094°29'3 5.2
2018-May-16 23:30N 29°34' W 094°26'2 4.3
2018-May-16 23:00N 29°36' W 094°25'5 4.9
2018-May-16 21:55N 29°38' W 094°19'2 5.0
2018-May-16 21:28N 29°39' W 094°17'3 5.1
2018-May-16 20:52N 29°40' W 094°14'2 5.1
2018-May-16 20:29N 29°41' W 094°12'2 4.0
2018-May-16 20:00N 29°41' W 094°10'2 4.8
2018-May-16 19:30N 29°43' W 094°08'3 5.1
2018-May-16 19:00N 29°44' W 094°05'2 4.8
2018-May-16 18:31N 29°46' W 094°03'2 4.6
2018-May-16 18:00N 29°47' W 094°01'1 3.0
2018-May-16 17:30N 29°48' W 093°60'2 3.2
2018-May-16 17:00N 29°49' W 093°58'2 4.9
2018-May-16 16:30N 29°51' W 093°57'3 5.7
2018-May-16 16:00N 29°54' W 093°55'3 5.7
2018-May-16 15:30N 29°56' W 093°53'3 5.6
2018-May-16 15:00N 29°58' W 093°51'2 4.1
2018-May-16 14:30N 29°59' W 093°49'3 5.8
2018-May-16 14:00N 30°00' W 093°46'  

Dump ship's entire track history